sensor_id;sensor_type;location;lat;lon;timestamp;temperature;humidity
15182;DHT22;7692;50.602;8.692;2024-03-02T00:01:05;3.50;99.90
15182;DHT22;7692;50.602;8.692;2024-03-02T00:03:34;3.40;99.90
15182;DHT22;7692;50.602;8.692;2024-03-02T00:06:02;3.40;99.90
15182;DHT22;7692;50.602;8.692;2024-03-02T00:08:31;3.40;99.90
15182;DHT22;7692;50.602;8.692;2024-03-02T00:11:02;3.40;99.90
15182;DHT22;7692;50.602;8.692;2024-03-02T00:13:30;3.40;99.90
15182;DHT22;7692;50.602;8.692;2024-03-02T00:15:59;3.40;99.90
15182;DHT22;7692;50.602;8.692;2024-03-02T00:18:30;3.40;99.90
15182;DHT22;7692;50.602;8.692;2024-03-02T00:20:58;3.40;99.90
15182;DHT22;7692;50.602;8.692;2024-03-02T00:23:29;3.40;99.90
15182;DHT22;7692;50.602;8.692;2024-03-02T00:25:57;3.40;99.90
15182;DHT22;7692;50.602;8.692;2024-03-02T00:28:30;3.40;99.90
15182;DHT22;7692;50.602;8.692;2024-03-02T00:31:03;3.40;99.90
15182;DHT22;7692;50.602;8.692;2024-03-02T00:33:33;3.40;99.90
15182;DHT22;7692;50.602;8.692;2024-03-02T00:36:02;3.40;99.90
15182;DHT22;7692;50.602;8.692;2024-03-02T00:38:31;3.30;99.90
15182;DHT22;7692;50.602;8.692;2024-03-02T00:41:02;3.30;99.90
15182;DHT22;7692;50.602;8.692;2024-03-02T00:43:43;3.30;99.90
15182;DHT22;7692;50.602;8.692;2024-03-02T00:46:17;3.30;99.90
15182;DHT22;7692;50.602;8.692;2024-03-02T00:48:51;3.30;99.90
15182;DHT22;7692;50.602;8.692;2024-03-02T00:51:22;3.30;99.90
15182;DHT22;7692;50.602;8.692;2024-03-02T00:53:51;3.20;99.90
15182;DHT22;7692;50.602;8.692;2024-03-02T00:56:19;3.20;99.90
15182;DHT22;7692;50.602;8.692;2024-03-02T00:58:49;3.20;99.90
15182;DHT22;7692;50.602;8.692;2024-03-02T01:01:17;3.10;99.90
15182;DHT22;7692;50.602;8.692;2024-03-02T01:03:46;3.10;99.90
15182;DHT22;7692;50.602;8.692;2024-03-02T01:06:15;3.10;99.90
15182;DHT22;7692;50.602;8.692;2024-03-02T01:08:44;3.00;99.90
15182;DHT22;7692;50.602;8.692;2024-03-02T01:11:13;3.00;99.90
15182;DHT22;7692;50.602;8.692;2024-03-02T01:13:41;3.00;99.90
15182;DHT22;7692;50.602;8.692;2024-03-02T01:16:13;3.00;99.90
15182;DHT22;7692;50.602;8.692;2024-03-02T01:18:42;3.00;99.90
15182;DHT22;7692;50.602;8.692;2024-03-02T01:21:10;3.00;99.90
15182;DHT22;7692;50.602;8.692;2024-03-02T01:23:38;3.00;99.90
15182;DHT22;7692;50.602;8.692;2024-03-02T01:26:06;3.00;99.90
15182;DHT22;7692;50.602;8.692;2024-03-02T01:28:34;3.00;99.90
15182;DHT22;7692;50.602;8.692;2024-03-02T01:31:03;3.00;99.90
15182;DHT22;7692;50.602;8.692;2024-03-02T01:33:32;3.00;99.90
15182;DHT22;7692;50.602;8.692;2024-03-02T01:36:00;3.00;99.90
15182;DHT22;7692;50.602;8.692;2024-03-02T01:38:28;3.10;99.90
15182;DHT22;7692;50.602;8.692;2024-03-02T01:40:56;3.10;99.90
15182;DHT22;7692;50.602;8.692;2024-03-02T01:43:25;3.20;99.90
15182;DHT22;7692;50.602;8.692;2024-03-02T01:45:53;3.20;99.90
15182;DHT22;7692;50.602;8.692;2024-03-02T01:48:21;3.30;99.90
15182;DHT22;7692;50.602;8.692;2024-03-02T01:50:50;3.30;99.90
15182;DHT22;7692;50.602;8.692;2024-03-02T01:53:18;3.40;99.90
15182;DHT22;7692;50.602;8.692;2024-03-02T01:55:47;3.50;99.90
15182;DHT22;7692;50.602;8.692;2024-03-02T01:58:15;3.50;99.90
15182;DHT22;7692;50.602;8.692;2024-03-02T02:00:43;3.60;99.90
15182;DHT22;7692;50.602;8.692;2024-03-02T02:03:12;3.60;99.90
15182;DHT22;7692;50.602;8.692;2024-03-02T02:05:42;3.70;99.90
15182;DHT22;7692;50.602;8.692;2024-03-02T02:08:11;3.70;99.90
15182;DHT22;7692;50.602;8.692;2024-03-02T02:10:39;3.70;99.90
15182;DHT22;7692;50.602;8.692;2024-03-02T02:13:07;3.70;99.90
15182;DHT22;7692;50.602;8.692;2024-03-02T02:15:35;3.60;99.90
15182;DHT22;7692;50.602;8.692;2024-03-02T02:18:04;3.70;99.90
15182;DHT22;7692;50.602;8.692;2024-03-02T02:20:32;3.70;99.90
15182;DHT22;7692;50.602;8.692;2024-03-02T02:23:02;3.70;99.90
15182;DHT22;7692;50.602;8.692;2024-03-02T02:25:32;3.70;99.90
15182;DHT22;7692;50.602;8.692;2024-03-02T02:28:00;3.60;99.90
15182;DHT22;7692;50.602;8.692;2024-03-02T02:30:30;3.60;99.90
15182;DHT22;7692;50.602;8.692;2024-03-02T02:32:58;3.70;99.90
15182;DHT22;7692;50.602;8.692;2024-03-02T02:35:27;3.70;99.90
15182;DHT22;7692;50.602;8.692;2024-03-02T02:37:57;3.70;99.90
15182;DHT22;7692;50.602;8.692;2024-03-02T02:40:27;3.60;99.90
15182;DHT22;7692;50.602;8.692;2024-03-02T02:42:57;3.60;99.90
15182;DHT22;7692;50.602;8.692;2024-03-02T02:45:25;3.50;99.90
15182;DHT22;7692;50.602;8.692;2024-03-02T02:47:54;3.50;99.90
15182;DHT22;7692;50.602;8.692;2024-03-02T02:50:22;3.40;99.90
15182;DHT22;7692;50.602;8.692;2024-03-02T02:52:50;3.30;99.90
15182;DHT22;7692;50.602;8.692;2024-03-02T02:55:17;3.20;99.90
15182;DHT22;7692;50.602;8.692;2024-03-02T02:57:47;3.20;99.90
15182;DHT22;7692;50.602;8.692;2024-03-02T03:00:16;3.20;99.90
15182;DHT22;7692;50.602;8.692;2024-03-02T03:02:47;3.20;99.90
15182;DHT22;7692;50.602;8.692;2024-03-02T03:05:18;3.20;99.90
15182;DHT22;7692;50.602;8.692;2024-03-02T03:07:46;3.20;99.90
15182;DHT22;7692;50.602;8.692;2024-03-02T03:10:17;3.10;99.90
15182;DHT22;7692;50.602;8.692;2024-03-02T03:12:46;3.10;99.90
15182;DHT22;7692;50.602;8.692;2024-03-02T03:15:14;3.10;99.90
15182;DHT22;7692;50.602;8.692;2024-03-02T03:17:44;3.10;99.90
15182;DHT22;7692;50.602;8.692;2024-03-02T03:20:14;3.10;99.90
15182;DHT22;7692;50.602;8.692;2024-03-02T03:22:43;3.00;99.90
15182;DHT22;7692;50.602;8.692;2024-03-02T03:25:10;3.10;99.90
15182;DHT22;7692;50.602;8.692;2024-03-02T03:27:39;3.10;99.90
15182;DHT22;7692;50.602;8.692;2024-03-02T03:30:10;3.00;99.90
15182;DHT22;7692;50.602;8.692;2024-03-02T03:32:38;3.10;99.90
15182;DHT22;7692;50.602;8.692;2024-03-02T03:35:07;3.00;99.90
15182;DHT22;7692;50.602;8.692;2024-03-02T03:37:35;3.00;99.90
15182;DHT22;7692;50.602;8.692;2024-03-02T03:40:04;3.00;99.90
15182;DHT22;7692;50.602;8.692;2024-03-02T03:42:37;3.00;99.90
15182;DHT22;7692;50.602;8.692;2024-03-02T03:45:06;3.00;99.90
15182;DHT22;7692;50.602;8.692;2024-03-02T03:47:35;3.00;99.90
15182;DHT22;7692;50.602;8.692;2024-03-02T03:50:04;3.00;99.90
15182;DHT22;7692;50.602;8.692;2024-03-02T03:52:34;3.00;99.90
15182;DHT22;7692;50.602;8.692;2024-03-02T03:55:02;3.00;99.90
15182;DHT22;7692;50.602;8.692;2024-03-02T03:57:32;3.10;99.90
15182;DHT22;7692;50.602;8.692;2024-03-02T04:00:00;3.10;99.90
15182;DHT22;7692;50.602;8.692;2024-03-02T04:02:39;3.10;99.90
15182;DHT22;7692;50.602;8.692;2024-03-02T04:05:07;3.00;99.90
15182;DHT22;7692;50.602;8.692;2024-03-02T04:07:38;3.00;99.90
15182;DHT22;7692;50.602;8.692;2024-03-02T04:10:08;3.00;99.90
15182;DHT22;7692;50.602;8.692;2024-03-02T04:12:37;3.00;99.90
15182;DHT22;7692;50.602;8.692;2024-03-02T04:15:05;3.00;99.90
15182;DHT22;7692;50.602;8.692;2024-03-02T04:17:34;3.00;99.90
15182;DHT22;7692;50.602;8.692;2024-03-02T04:20:05;3.00;99.90
15182;DHT22;7692;50.602;8.692;2024-03-02T04:22:33;3.00;99.90
15182;DHT22;7692;50.602;8.692;2024-03-02T04:25:02;3.10;99.90
15182;DHT22;7692;50.602;8.692;2024-03-02T04:27:32;3.10;99.90
15182;DHT22;7692;50.602;8.692;2024-03-02T04:30:00;3.10;99.90
15182;DHT22;7692;50.602;8.692;2024-03-02T04:32:28;3.10;99.90
15182;DHT22;7692;50.602;8.692;2024-03-02T04:34:56;3.20;99.90
15182;DHT22;7692;50.602;8.692;2024-03-02T04:37:26;3.20;99.90
15182;DHT22;7692;50.602;8.692;2024-03-02T04:39:54;3.20;99.90
15182;DHT22;7692;50.602;8.692;2024-03-02T04:42:22;3.10;99.90
15182;DHT22;7692;50.602;8.692;2024-03-02T04:44:50;3.10;99.90
15182;DHT22;7692;50.602;8.692;2024-03-02T04:47:18;3.00;99.90
15182;DHT22;7692;50.602;8.692;2024-03-02T04:49:46;2.90;99.90
15182;DHT22;7692;50.602;8.692;2024-03-02T04:52:14;2.90;99.90
15182;DHT22;7692;50.602;8.692;2024-03-02T04:54:43;2.90;99.90
15182;DHT22;7692;50.602;8.692;2024-03-02T04:57:25;2.80;99.90
15182;DHT22;7692;50.602;8.692;2024-03-02T04:59:53;2.80;99.90
15182;DHT22;7692;50.602;8.692;2024-03-02T05:02:21;2.80;99.90
15182;DHT22;7692;50.602;8.692;2024-03-02T05:04:49;2.70;99.90
15182;DHT22;7692;50.602;8.692;2024-03-02T05:07:17;2.80;99.90
15182;DHT22;7692;50.602;8.692;2024-03-02T05:09:46;2.80;99.90
15182;DHT22;7692;50.602;8.692;2024-03-02T05:12:15;2.80;99.90
15182;DHT22;7692;50.602;8.692;2024-03-02T05:15:07;2.80;99.90
15182;DHT22;7692;50.602;8.692;2024-03-02T05:17:37;2.80;99.90
15182;DHT22;7692;50.602;8.692;2024-03-02T05:20:06;2.80;99.90
15182;DHT22;7692;50.602;8.692;2024-03-02T05:22:35;2.80;99.90
15182;DHT22;7692;50.602;8.692;2024-03-02T05:25:05;2.80;99.90
15182;DHT22;7692;50.602;8.692;2024-03-02T05:27:34;2.80;99.90
15182;DHT22;7692;50.602;8.692;2024-03-02T05:30:02;2.80;99.90
15182;DHT22;7692;50.602;8.692;2024-03-02T05:32:33;2.80;99.90
15182;DHT22;7692;50.602;8.692;2024-03-02T05:35:01;2.80;99.90
15182;DHT22;7692;50.602;8.692;2024-03-02T05:37:29;2.80;99.90
15182;DHT22;7692;50.602;8.692;2024-03-02T05:39:57;2.80;99.90
15182;DHT22;7692;50.602;8.692;2024-03-02T05:42:28;2.80;99.90
15182;DHT22;7692;50.602;8.692;2024-03-02T05:44:55;2.80;99.90
15182;DHT22;7692;50.602;8.692;2024-03-02T05:47:27;2.90;99.90
15182;DHT22;7692;50.602;8.692;2024-03-02T05:49:55;2.90;99.90
15182;DHT22;7692;50.602;8.692;2024-03-02T05:52:23;2.90;99.90
15182;DHT22;7692;50.602;8.692;2024-03-02T05:54:51;2.90;99.90
15182;DHT22;7692;50.602;8.692;2024-03-02T05:57:19;2.90;99.90
15182;DHT22;7692;50.602;8.692;2024-03-02T06:00:02;2.90;99.90
15182;DHT22;7692;50.602;8.692;2024-03-02T06:02:39;2.80;99.90
15182;DHT22;7692;50.602;8.692;2024-03-02T06:05:07;2.80;99.90
15182;DHT22;7692;50.602;8.692;2024-03-02T06:07:35;2.80;99.90
15182;DHT22;7692;50.602;8.692;2024-03-02T06:10:04;2.90;99.90
15182;DHT22;7692;50.602;8.692;2024-03-02T06:12:37;2.90;99.90
15182;DHT22;7692;50.602;8.692;2024-03-02T06:15:07;3.00;99.90
15182;DHT22;7692;50.602;8.692;2024-03-02T06:17:36;3.10;99.90
15182;DHT22;7692;50.602;8.692;2024-03-02T06:20:05;3.30;99.90
15182;DHT22;7692;50.602;8.692;2024-03-02T06:22:34;3.40;99.90
15182;DHT22;7692;50.602;8.692;2024-03-02T06:25:03;3.50;99.90
15182;DHT22;7692;50.602;8.692;2024-03-02T06:27:31;3.50;99.90
15182;DHT22;7692;50.602;8.692;2024-03-02T06:29:59;3.50;99.90
15182;DHT22;7692;50.602;8.692;2024-03-02T06:32:29;3.50;99.90
15182;DHT22;7692;50.602;8.692;2024-03-02T06:34:57;3.50;99.90
15182;DHT22;7692;50.602;8.692;2024-03-02T06:37:26;3.50;99.90
15182;DHT22;7692;50.602;8.692;2024-03-02T06:39:54;3.40;99.90
15182;DHT22;7692;50.602;8.692;2024-03-02T06:42:22;3.40;99.90
15182;DHT22;7692;50.602;8.692;2024-03-02T06:44:50;3.40;99.90
15182;DHT22;7692;50.602;8.692;2024-03-02T06:47:18;3.40;99.90
15182;DHT22;7692;50.602;8.692;2024-03-02T06:49:48;3.40;99.90
15182;DHT22;7692;50.602;8.692;2024-03-02T06:52:16;3.40;99.90
15182;DHT22;7692;50.602;8.692;2024-03-02T06:54:50;3.40;99.90
15182;DHT22;7692;50.602;8.692;2024-03-02T06:57:18;3.40;99.90
15182;DHT22;7692;50.602;8.692;2024-03-02T06:59:47;3.50;99.90
15182;DHT22;7692;50.602;8.692;2024-03-02T07:02:17;3.50;99.90
15182;DHT22;7692;50.602;8.692;2024-03-02T07:04:45;3.50;99.90
15182;DHT22;7692;50.602;8.692;2024-03-02T07:07:14;3.60;99.90
15182;DHT22;7692;50.602;8.692;2024-03-02T07:09:42;3.60;99.90
15182;DHT22;7692;50.602;8.692;2024-03-02T07:12:10;3.70;99.90
15182;DHT22;7692;50.602;8.692;2024-03-02T07:14:38;3.80;99.90
15182;DHT22;7692;50.602;8.692;2024-03-02T07:17:20;3.80;99.90
15182;DHT22;7692;50.602;8.692;2024-03-02T07:19:48;3.80;99.90
15182;DHT22;7692;50.602;8.692;2024-03-02T07:22:17;3.90;99.90
15182;DHT22;7692;50.602;8.692;2024-03-02T07:24:45;3.90;99.90
15182;DHT22;7692;50.602;8.692;2024-03-02T07:27:14;3.90;99.90
15182;DHT22;7692;50.602;8.692;2024-03-02T07:29:42;4.00;99.90
15182;DHT22;7692;50.602;8.692;2024-03-02T07:32:10;4.00;99.90
15182;DHT22;7692;50.602;8.692;2024-03-02T07:34:38;4.00;99.90
15182;DHT22;7692;50.602;8.692;2024-03-02T07:37:06;4.10;99.90
15182;DHT22;7692;50.602;8.692;2024-03-02T07:39:36;4.10;99.90
15182;DHT22;7692;50.602;8.692;2024-03-02T07:42:04;4.10;99.90
15182;DHT22;7692;50.602;8.692;2024-03-02T07:44:32;4.10;99.90
15182;DHT22;7692;50.602;8.692;2024-03-02T07:47:00;4.30;99.90
15182;DHT22;7692;50.602;8.692;2024-03-02T07:49:29;4.40;99.90
15182;DHT22;7692;50.602;8.692;2024-03-02T07:51:56;4.50;99.90
15182;DHT22;7692;50.602;8.692;2024-03-02T07:54:25;4.60;99.90
15182;DHT22;7692;50.602;8.692;2024-03-02T07:56:55;4.80;99.90
15182;DHT22;7692;50.602;8.692;2024-03-02T07:59:23;5.00;99.90
15182;DHT22;7692;50.602;8.692;2024-03-02T08:01:50;5.20;99.90
15182;DHT22;7692;50.602;8.692;2024-03-02T08:04:18;5.40;99.90
15182;DHT22;7692;50.602;8.692;2024-03-02T08:06:47;5.60;99.90
15182;DHT22;7692;50.602;8.692;2024-03-02T08:09:26;5.80;99.90
15182;DHT22;7692;50.602;8.692;2024-03-02T08:11:56;6.00;99.90
15182;DHT22;7692;50.602;8.692;2024-03-02T08:14:24;6.10;99.90
15182;DHT22;7692;50.602;8.692;2024-03-02T08:16:52;6.30;99.90
15182;DHT22;7692;50.602;8.692;2024-03-02T08:19:20;6.40;99.90
15182;DHT22;7692;50.602;8.692;2024-03-02T08:21:48;6.60;99.90
15182;DHT22;7692;50.602;8.692;2024-03-02T08:24:17;6.70;99.90
15182;DHT22;7692;50.602;8.692;2024-03-02T08:26:45;6.90;99.90
15182;DHT22;7692;50.602;8.692;2024-03-02T08:29:14;6.90;99.90
15182;DHT22;7692;50.602;8.692;2024-03-02T08:31:43;7.00;99.90
15182;DHT22;7692;50.602;8.692;2024-03-02T08:34:11;7.00;99.90
15182;DHT22;7692;50.602;8.692;2024-03-02T08:36:39;7.00;99.90
15182;DHT22;7692;50.602;8.692;2024-03-02T08:39:08;7.00;99.90
15182;DHT22;7692;50.602;8.692;2024-03-02T08:41:44;7.10;99.90
15182;DHT22;7692;50.602;8.692;2024-03-02T08:44:13;7.10;99.90
15182;DHT22;7692;50.602;8.692;2024-03-02T08:46:42;7.10;99.90
15182;DHT22;7692;50.602;8.692;2024-03-02T08:49:11;7.20;99.90
15182;DHT22;7692;50.602;8.692;2024-03-02T08:51:39;7.30;99.90
15182;DHT22;7692;50.602;8.692;2024-03-02T08:54:08;7.40;99.90
15182;DHT22;7692;50.602;8.692;2024-03-02T08:56:36;7.40;99.90
15182;DHT22;7692;50.602;8.692;2024-03-02T08:59:04;7.50;99.90
15182;DHT22;7692;50.602;8.692;2024-03-02T09:01:32;7.50;99.90
15182;DHT22;7692;50.602;8.692;2024-03-02T09:04:02;7.60;99.90
15182;DHT22;7692;50.602;8.692;2024-03-02T09:06:31;7.60;99.90
15182;DHT22;7692;50.602;8.692;2024-03-02T09:08:59;7.70;99.90
15182;DHT22;7692;50.602;8.692;2024-03-02T09:11:27;7.90;99.90
15182;DHT22;7692;50.602;8.692;2024-03-02T09:13:55;7.80;99.90
15182;DHT22;7692;50.602;8.692;2024-03-02T09:16:24;7.90;99.90
15182;DHT22;7692;50.602;8.692;2024-03-02T09:19:02;8.10;99.90
15182;DHT22;7692;50.602;8.692;2024-03-02T09:21:30;8.20;99.90
15182;DHT22;7692;50.602;8.692;2024-03-02T09:23:58;8.40;99.90
15182;DHT22;7692;50.602;8.692;2024-03-02T09:26:26;8.80;99.90
15182;DHT22;7692;50.602;8.692;2024-03-02T09:28:54;9.30;99.90
15182;DHT22;7692;50.602;8.692;2024-03-02T09:31:22;9.80;99.90
15182;DHT22;7692;50.602;8.692;2024-03-02T09:33:50;10.20;99.90
15182;DHT22;7692;50.602;8.692;2024-03-02T09:36:20;10.30;99.90
15182;DHT22;7692;50.602;8.692;2024-03-02T09:38:49;10.30;99.90
15182;DHT22;7692;50.602;8.692;2024-03-02T09:41:17;10.60;99.90
15182;DHT22;7692;50.602;8.692;2024-03-02T09:43:46;10.70;99.90
15182;DHT22;7692;50.602;8.692;2024-03-02T09:46:15;10.50;99.90
15182;DHT22;7692;50.602;8.692;2024-03-02T09:48:44;10.30;99.90
15182;DHT22;7692;50.602;8.692;2024-03-02T09:51:14;10.10;99.90
15182;DHT22;7692;50.602;8.692;2024-03-02T09:53:48;10.10;99.90
15182;DHT22;7692;50.602;8.692;2024-03-02T09:56:16;9.90;99.90
15182;DHT22;7692;50.602;8.692;2024-03-02T09:58:45;9.90;99.90
15182;DHT22;7692;50.602;8.692;2024-03-02T10:01:15;9.80;99.90
15182;DHT22;7692;50.602;8.692;2024-03-02T10:03:44;9.80;99.90
15182;DHT22;7692;50.602;8.692;2024-03-02T10:06:20;9.80;99.90
15182;DHT22;7692;50.602;8.692;2024-03-02T10:08:50;9.90;99.90
15182;DHT22;7692;50.602;8.692;2024-03-02T10:11:29;9.90;99.90
15182;DHT22;7692;50.602;8.692;2024-03-02T10:14:07;10.00;99.90
15182;DHT22;7692;50.602;8.692;2024-03-02T10:16:37;10.00;99.90
15182;DHT22;7692;50.602;8.692;2024-03-02T10:19:18;10.20;99.90
15182;DHT22;7692;50.602;8.692;2024-03-02T10:21:47;10.40;99.90
15182;DHT22;7692;50.602;8.692;2024-03-02T10:24:18;10.50;99.90
15182;DHT22;7692;50.602;8.692;2024-03-02T10:26:46;10.70;99.90
15182;DHT22;7692;50.602;8.692;2024-03-02T10:29:15;11.00;99.90
15182;DHT22;7692;50.602;8.692;2024-03-02T10:31:44;11.00;99.90
15182;DHT22;7692;50.602;8.692;2024-03-02T10:34:14;11.30;99.90
15182;DHT22;7692;50.602;8.692;2024-03-02T10:36:43;11.80;99.90
15182;DHT22;7692;50.602;8.692;2024-03-02T10:39:13;12.50;99.90
15182;DHT22;7692;50.602;8.692;2024-03-02T11:19:13;14.70;99.90
15182;DHT22;7692;50.602;8.692;2024-03-02T11:21:43;14.80;99.90
15182;DHT22;7692;50.602;8.692;2024-03-02T11:24:31;14.50;99.90
15182;DHT22;7692;50.602;8.692;2024-03-02T11:27:05;14.30;99.90
15182;DHT22;7692;50.602;8.692;2024-03-02T11:29:45;14.00;99.90
15182;DHT22;7692;50.602;8.692;2024-03-02T11:32:15;13.80;99.90
15182;DHT22;7692;50.602;8.692;2024-03-02T11:34:45;13.70;99.90
15182;DHT22;7692;50.602;8.692;2024-03-02T11:37:15;13.60;99.90
15182;DHT22;7692;50.602;8.692;2024-03-02T11:39:44;14.00;99.90
15182;DHT22;7692;50.602;8.692;2024-03-02T11:42:13;14.30;99.90
15182;DHT22;7692;50.602;8.692;2024-03-02T11:44:45;14.50;99.90
15182;DHT22;7692;50.602;8.692;2024-03-02T11:47:15;14.40;99.90
15182;DHT22;7692;50.602;8.692;2024-03-02T11:49:45;14.00;99.90
15182;DHT22;7692;50.602;8.692;2024-03-02T11:52:14;13.70;99.90
15182;DHT22;7692;50.602;8.692;2024-03-02T11:54:43;13.40;99.90
15182;DHT22;7692;50.602;8.692;2024-03-02T11:57:15;13.30;99.90
15182;DHT22;7692;50.602;8.692;2024-03-02T11:59:44;13.30;99.90
15182;DHT22;7692;50.602;8.692;2024-03-02T12:02:15;13.20;99.90
15182;DHT22;7692;50.602;8.692;2024-03-02T12:04:45;13.10;99.90
15182;DHT22;7692;50.602;8.692;2024-03-02T12:07:19;13.10;99.90
15182;DHT22;7692;50.602;8.692;2024-03-02T12:09:49;13.20;99.90
15182;DHT22;7692;50.602;8.692;2024-03-02T12:12:27;13.20;99.90
15182;DHT22;7692;50.602;8.692;2024-03-02T12:14:56;13.20;99.90
15182;DHT22;7692;50.602;8.692;2024-03-02T12:17:26;13.10;99.90
15182;DHT22;7692;50.602;8.692;2024-03-02T12:19:54;13.10;99.90
15182;DHT22;7692;50.602;8.692;2024-03-02T12:22:22;12.90;99.90
15182;DHT22;7692;50.602;8.692;2024-03-02T12:24:50;12.90;99.90
15182;DHT22;7692;50.602;8.692;2024-03-02T12:27:19;12.80;99.90
15182;DHT22;7692;50.602;8.692;2024-03-02T12:29:48;12.80;99.90
15182;DHT22;7692;50.602;8.692;2024-03-02T12:32:18;12.70;99.90
15182;DHT22;7692;50.602;8.692;2024-03-02T12:34:47;12.60;99.90
15182;DHT22;7692;50.602;8.692;2024-03-02T12:37:15;12.60;99.90
15182;DHT22;7692;50.602;8.692;2024-03-02T12:39:45;12.80;99.90
15182;DHT22;7692;50.602;8.692;2024-03-02T12:42:14;13.30;99.90
15182;DHT22;7692;50.602;8.692;2024-03-02T12:44:42;13.80;99.90
15182;DHT22;7692;50.602;8.692;2024-03-02T12:47:10;14.30;99.90
15182;DHT22;7692;50.602;8.692;2024-03-02T12:49:41;14.80;99.90
15182;DHT22;7692;50.602;8.692;2024-03-02T12:52:11;15.20;99.90
15182;DHT22;7692;50.602;8.692;2024-03-02T12:54:40;15.60;99.90
15182;DHT22;7692;50.602;8.692;2024-03-02T12:57:08;15.70;99.90
15182;DHT22;7692;50.602;8.692;2024-03-02T12:59:36;15.50;99.90
15182;DHT22;7692;50.602;8.692;2024-03-02T13:02:04;15.60;99.90
15182;DHT22;7692;50.602;8.692;2024-03-02T13:04:33;15.80;99.90
15182;DHT22;7692;50.602;8.692;2024-03-02T13:07:03;15.90;99.90
15182;DHT22;7692;50.602;8.692;2024-03-02T13:09:31;15.70;99.90
15182;DHT22;7692;50.602;8.692;2024-03-02T13:12:00;15.40;99.90
15182;DHT22;7692;50.602;8.692;2024-03-02T13:14:32;15.20;99.90
15182;DHT22;7692;50.602;8.692;2024-03-02T13:17:00;15.00;99.90
15182;DHT22;7692;50.602;8.692;2024-03-02T13:19:30;14.90;99.90
15182;DHT22;7692;50.602;8.692;2024-03-02T13:21:59;14.90;99.90
15182;DHT22;7692;50.602;8.692;2024-03-02T13:24:30;14.90;99.90
15182;DHT22;7692;50.602;8.692;2024-03-02T13:26:58;14.90;99.90
15182;DHT22;7692;50.602;8.692;2024-03-02T13:29:26;15.00;99.90
15182;DHT22;7692;50.602;8.692;2024-03-02T13:31:54;15.30;99.90
15182;DHT22;7692;50.602;8.692;2024-03-02T13:34:24;15.60;99.90
15182;DHT22;7692;50.602;8.692;2024-03-02T13:36:52;15.80;99.90
15182;DHT22;7692;50.602;8.692;2024-03-02T13:39:20;16.00;99.90
15182;DHT22;7692;50.602;8.692;2024-03-02T13:41:49;16.10;99.90
15182;DHT22;7692;50.602;8.692;2024-03-02T13:44:24;16.30;99.90
15182;DHT22;7692;50.602;8.692;2024-03-02T13:46:52;16.40;99.90
15182;DHT22;7692;50.602;8.692;2024-03-02T13:49:20;16.50;99.90
15182;DHT22;7692;50.602;8.692;2024-03-02T13:51:49;16.60;99.90
15182;DHT22;7692;50.602;8.692;2024-03-02T13:54:18;16.70;99.90
15182;DHT22;7692;50.602;8.692;2024-03-02T13:56:46;16.80;99.90
15182;DHT22;7692;50.602;8.692;2024-03-02T13:59:16;16.90;99.90
15182;DHT22;7692;50.602;8.692;2024-03-02T14:01:44;16.80;99.90
15182;DHT22;7692;50.602;8.692;2024-03-02T14:04:12;16.80;99.90
15182;DHT22;7692;50.602;8.692;2024-03-02T14:06:42;16.80;99.90
15182;DHT22;7692;50.602;8.692;2024-03-02T14:09:10;16.80;99.90
15182;DHT22;7692;50.602;8.692;2024-03-02T14:11:38;16.80;99.90
15182;DHT22;7692;50.602;8.692;2024-03-02T14:14:06;16.80;99.90
15182;DHT22;7692;50.602;8.692;2024-03-02T14:16:35;16.80;99.90
15182;DHT22;7692;50.602;8.692;2024-03-02T14:19:03;16.70;99.90
15182;DHT22;7692;50.602;8.692;2024-03-02T14:21:32;16.60;99.90
15182;DHT22;7692;50.602;8.692;2024-03-02T14:24:03;16.60;99.90
15182;DHT22;7692;50.602;8.692;2024-03-02T14:26:31;16.60;99.90
15182;DHT22;7692;50.602;8.692;2024-03-02T14:29:00;16.60;99.90
15182;DHT22;7692;50.602;8.692;2024-03-02T14:31:29;16.40;99.80
15182;DHT22;7692;50.602;8.692;2024-03-02T14:33:59;16.40;99.90
15182;DHT22;7692;50.602;8.692;2024-03-02T14:36:28;16.30;99.90
15182;DHT22;7692;50.602;8.692;2024-03-02T14:38:56;16.30;99.90
15182;DHT22;7692;50.602;8.692;2024-03-02T14:41:24;16.20;99.80
15182;DHT22;7692;50.602;8.692;2024-03-02T14:43:52;16.20;99.90
15182;DHT22;7692;50.602;8.692;2024-03-02T14:46:20;16.10;99.90
15182;DHT22;7692;50.602;8.692;2024-03-02T14:48:48;16.00;99.90
15182;DHT22;7692;50.602;8.692;2024-03-02T14:51:17;15.80;99.90
15182;DHT22;7692;50.602;8.692;2024-03-02T14:53:46;15.60;99.90
15182;DHT22;7692;50.602;8.692;2024-03-02T14:56:14;15.40;99.90
15182;DHT22;7692;50.602;8.692;2024-03-02T14:58:42;15.30;99.90
15182;DHT22;7692;50.602;8.692;2024-03-02T15:01:12;15.10;99.90
15182;DHT22;7692;50.602;8.692;2024-03-02T15:03:41;14.90;99.90
15182;DHT22;7692;50.602;8.692;2024-03-02T15:06:09;14.70;99.90
15182;DHT22;7692;50.602;8.692;2024-03-02T15:08:40;14.60;99.90
15182;DHT22;7692;50.602;8.692;2024-03-02T15:11:09;14.50;99.90
15182;DHT22;7692;50.602;8.692;2024-03-02T15:13:37;14.40;99.90
15182;DHT22;7692;50.602;8.692;2024-03-02T15:16:06;14.30;99.90
15182;DHT22;7692;50.602;8.692;2024-03-02T15:18:34;14.30;99.90
15182;DHT22;7692;50.602;8.692;2024-03-02T15:21:04;14.20;99.90
15182;DHT22;7692;50.602;8.692;2024-03-02T15:23:32;14.20;99.90
15182;DHT22;7692;50.602;8.692;2024-03-02T15:26:02;14.20;99.90
15182;DHT22;7692;50.602;8.692;2024-03-02T15:28:30;14.10;99.90
15182;DHT22;7692;50.602;8.692;2024-03-02T15:30:58;14.10;99.90
15182;DHT22;7692;50.602;8.692;2024-03-02T15:33:26;14.10;99.90
15182;DHT22;7692;50.602;8.692;2024-03-02T15:35:58;14.10;99.90
15182;DHT22;7692;50.602;8.692;2024-03-02T15:38:27;14.00;99.90
15182;DHT22;7692;50.602;8.692;2024-03-02T15:41:03;13.80;99.90
15182;DHT22;7692;50.602;8.692;2024-03-02T15:43:31;13.80;99.90
15182;DHT22;7692;50.602;8.692;2024-03-02T15:45:59;13.70;99.90
15182;DHT22;7692;50.602;8.692;2024-03-02T15:48:27;13.60;99.90
15182;DHT22;7692;50.602;8.692;2024-03-02T15:50:55;13.50;99.90
15182;DHT22;7692;50.602;8.692;2024-03-02T15:53:26;13.40;99.90
15182;DHT22;7692;50.602;8.692;2024-03-02T15:55:54;13.30;99.90
15182;DHT22;7692;50.602;8.692;2024-03-02T15:58:24;13.20;99.90
15182;DHT22;7692;50.602;8.692;2024-03-02T16:00:51;13.10;99.90
15182;DHT22;7692;50.602;8.692;2024-03-02T16:03:20;13.00;99.90
15182;DHT22;7692;50.602;8.692;2024-03-02T16:05:48;12.90;99.90
15182;DHT22;7692;50.602;8.692;2024-03-02T16:08:16;12.80;99.90
15182;DHT22;7692;50.602;8.692;2024-03-02T16:10:44;12.70;99.90
15182;DHT22;7692;50.602;8.692;2024-03-02T16:15:42;12.60;99.90
15182;DHT22;7692;50.602;8.692;2024-03-02T16:18:10;12.60;99.90
15182;DHT22;7692;50.602;8.692;2024-03-02T16:20:38;12.50;99.90
15182;DHT22;7692;50.602;8.692;2024-03-02T16:23:07;12.50;99.90
15182;DHT22;7692;50.602;8.692;2024-03-02T16:25:35;12.40;99.90
15182;DHT22;7692;50.602;8.692;2024-03-02T16:28:04;12.30;99.90
15182;DHT22;7692;50.602;8.692;2024-03-02T16:30:32;12.30;99.90
15182;DHT22;7692;50.602;8.692;2024-03-02T16:33:02;12.20;99.90
15182;DHT22;7692;50.602;8.692;2024-03-02T16:35:30;12.10;99.90
15182;DHT22;7692;50.602;8.692;2024-03-02T16:40:27;11.90;99.90
15182;DHT22;7692;50.602;8.692;2024-03-02T16:42:57;11.90;99.90
15182;DHT22;7692;50.602;8.692;2024-03-02T16:45:25;11.70;99.90
15182;DHT22;7692;50.602;8.692;2024-03-02T16:47:53;11.50;99.90
15182;DHT22;7692;50.602;8.692;2024-03-02T16:50:22;11.50;99.90